Charleston, SC

21:25 EST le 02 décembre 2016 (GMT -0500)
Canopy Cove, James Island | | Change Station

Alt. 30 ft 32.74 °N, 79.92 °W | Updated 7 minutes ago

Clear
Ciel dégagé
49.3 ° F
Paraît 49 ° F
N
0.0
Vent Variable Vent de Nord
Gusts 1.2 mph

Aujourd'hui
Haut(e) -- | Bas -- ° F
--% Risque de précip.
Hier
Haut(e) -- | Bas -- ° F
Precip. -- pouce
Pression 30.22 pouce
Visibilité 10.0 Miles terrestres
Nuages Ciel dégagé
Refroidissement éolien 49 ° F
Point de rosée 40 ° F
Humidité 70%
Précipitations 0.00 pouce
Profondeur de la couche neigeuse Non disponible.
7:05 AM 5:13 PM
Lune montante, 12% visible
METAR KJZI 030215Z AUTO 00000KT 10SM CLR 07/04 A3022 RMK AO2
Pression 30.22 pouce
Visibilité 10.0 Miles terrestres
Nuages Ciel dégagé
Refroidissement éolien 49 ° F
Point de rosée 40 ° F
Humidité 70%
Précipitations 0.00 pouce
Profondeur de la couche neigeuse Non disponible.
7:05 AM 5:13 PM
Lune montante, 12% visible
METAR KJZI 030215Z AUTO 00000KT 10SM CLR 07/04 A3022 RMK AO2

10-Day Weather Forecast

Almanac

Astronomie

Dec. 02, 2016 Lever Coucher
Temps réel
Crépuscule civil
Crépuscule nautique
Crépuscule astronomique
Lune
Durée de lumière visible
Longueur du jour
Tomorrow will be .
, % of the Moon is Illuminated

Extrêmes aujourd'hui

State Highs State Lows

Community

WunderPhotos

Upload Photos

1,955,396 Photos téléchargées !

WunderBlog® & News

Nearby

Qualité de l'air

  Qualité de l'air Indice de la qualité de l'air Polluant
Not available.

Épaisseur de neige

Station Depth Altitude

Activité sismique

Ville Distance Mag. Time & Date
Minimum magnitude displayed is 2.5.

Températures des eaux côtières

Lieu Température

Stations

Stations météo à proximité

Emplacement de la station Température Refroidissement éolien Point de rosée Humidité Vent Precip. Alt. Mise à jour Type
                   

Watches & Warnings

There are currently no watches in effect.